createdAt,value
2019-03-23T00:01:00.482Z,71.41
2019-03-23T00:03:28.391Z,71.87
2019-03-23T00:05:56.256Z,72.37
2019-03-23T00:08:24.139Z,72.85
2019-03-23T00:10:52.117Z,72.98
2019-03-23T00:13:20.079Z,72.89
2019-03-23T00:15:47.999Z,71.99
2019-03-23T00:18:15.799Z,71.69
2019-03-23T00:20:43.691Z,71.85
2019-03-23T00:23:11.585Z,72.28
2019-03-23T00:25:39.459Z,72.56
2019-03-23T00:28:07.281Z,72.61
2019-03-23T00:30:35.179Z,72.46
2019-03-23T00:33:03.068Z,72.60
2019-03-23T00:35:30.945Z,72.21
2019-03-23T00:37:58.858Z,71.68
2019-03-23T00:40:26.813Z,72.28
2019-03-23T00:42:54.686Z,72.60
2019-03-23T00:45:22.544Z,72.01
2019-03-23T00:47:50.428Z,71.89
2019-03-23T00:50:18.301Z,74.43
2019-03-23T00:52:46.242Z,75.10
2019-03-23T00:55:14.105Z,73.40
2019-03-23T00:57:42.029Z,72.47
2019-03-23T01:00:10.526Z,72.41
2019-03-23T01:02:38.520Z,73.18
2019-03-23T01:05:07.491Z,74.38
2019-03-23T01:07:35.364Z,75.67
2019-03-23T01:10:04.184Z,74.50
2019-03-23T01:12:32.030Z,73.49
2019-03-23T01:15:00.006Z,74.98
2019-03-23T01:17:27.880Z,75.49
2019-03-23T01:19:55.719Z,76.03
2019-03-23T01:22:23.607Z,73.82
2019-03-23T01:24:51.485Z,74.08
2019-03-23T01:27:19.391Z,73.56
2019-03-23T01:29:47.254Z,74.59
2019-03-23T01:32:15.139Z,75.99
2019-03-23T01:34:42.980Z,76.19
2019-03-23T01:37:10.860Z,76.51
2019-03-23T01:39:38.727Z,75.17
2019-03-23T01:42:06.599Z,75.89
2019-03-23T01:44:34.511Z,77.76
2019-03-23T01:47:02.380Z,77.27
2019-03-23T01:49:30.239Z,76.13
2019-03-23T01:51:58.083Z,76.86
2019-03-23T01:54:25.941Z,77.56
2019-03-23T01:56:53.862Z,77.42
2019-03-23T01:59:21.733Z,78.86
2019-03-23T02:01:49.594Z,79.54
2019-03-23T02:04:17.521Z,79.24
2019-03-23T02:06:45.807Z,78.06
2019-03-23T02:09:13.774Z,79.17
2019-03-23T02:11:41.702Z,78.98
2019-03-23T02:14:09.599Z,79.05
2019-03-23T02:16:37.475Z,78.07
2019-03-23T02:19:05.842Z,77.07
2019-03-23T02:21:33.759Z,75.68
2019-03-23T02:24:01.622Z,76.62
2019-03-23T02:26:29.531Z,76.11
2019-03-23T02:28:57.431Z,75.91
2019-03-23T02:31:25.360Z,76.06
2019-03-23T02:33:53.248Z,77.08
2019-03-23T02:36:21.150Z,77.27
2019-03-23T02:38:49.005Z,77.26
2019-03-23T02:41:16.908Z,77.30
2019-03-23T02:43:44.785Z,78.66
2019-03-23T02:46:12.658Z,79.22
2019-03-23T02:48:40.560Z,79.21
2019-03-23T02:51:08.448Z,79.57
2019-03-23T02:53:36.327Z,78.66
2019-03-23T02:56:04.188Z,76.80
2019-03-23T02:58:32.082Z,79.36
2019-03-23T03:01:00.340Z,79.34
2019-03-23T03:03:28.236Z,77.34
2019-03-23T03:05:56.062Z,75.64
2019-03-23T03:08:24.013Z,77.90
2019-03-23T03:10:51.869Z,77.44
2019-03-23T03:13:19.699Z,77.98
2019-03-23T03:15:47.633Z,77.31
2019-03-23T03:18:15.568Z,77.94
2019-03-23T03:20:43.512Z,81.11
2019-03-23T03:23:11.502Z,78.28
2019-03-23T03:25:39.349Z,77.88
2019-03-23T03:28:07.143Z,78.37
2019-03-23T03:30:35.224Z,78.39
2019-03-23T03:33:03.129Z,78.14
2019-03-23T03:35:30.944Z,79.04
2019-03-23T03:37:58.872Z,79.04
2019-03-23T03:40:26.780Z,79.43
2019-03-23T03:42:54.629Z,80.66
2019-03-23T03:45:24.494Z,81.02
2019-03-23T03:47:54.682Z,79.45
2019-03-23T03:50:22.604Z,80.47
2019-03-23T03:52:50.500Z,78.75
2019-03-23T03:55:18.384Z,80.33
2019-03-23T03:57:46.264Z,80.84
2019-03-23T04:00:14.242Z,80.74
2019-03-23T04:02:42.101Z,80.05
2019-03-23T04:05:10.066Z,78.69
2019-03-23T04:07:37.930Z,77.40
2019-03-23T04:10:06.030Z,78.45
2019-03-23T04:12:33.940Z,79.67
2019-03-23T04:15:01.811Z,77.99
2019-03-23T04:17:29.659Z,77.37
2019-03-23T04:19:57.588Z,77.64
2019-03-23T04:22:25.390Z,77.14
2019-03-23T04:24:53.261Z,80.19
2019-03-23T04:27:21.141Z,78.22
2019-03-23T04:29:49.007Z,80.77
2019-03-23T04:32:16.942Z,82.11
2019-03-23T04:34:44.900Z,81.84
2019-03-23T04:37:13.042Z,83.41
2019-03-23T04:39:40.944Z,80.54
2019-03-23T04:42:08.799Z,79.81
2019-03-23T04:44:36.660Z,81.08
2019-03-23T04:47:04.597Z,80.30
2019-03-23T04:49:32.482Z,82.57
2019-03-23T04:52:00.359Z,81.78
2019-03-23T04:54:28.201Z,81.80
2019-03-23T04:56:56.087Z,79.97
2019-03-23T04:59:24.780Z,80.65
2019-03-23T05:01:53.711Z,83.24
2019-03-23T05:04:22.069Z,80.71
2019-03-23T05:06:49.945Z,78.89
2019-03-23T05:09:17.799Z,82.03
2019-03-23T05:11:45.709Z,80.82
2019-03-23T05:14:13.560Z,82.19
2019-03-23T05:16:41.439Z,81.42
2019-03-23T05:19:09.279Z,79.50
2019-03-23T05:21:37.194Z,80.50
2019-03-23T05:24:05.082Z,80.82
2019-03-23T05:26:32.934Z,80.05
2019-03-23T05:29:00.840Z,79.67
2019-03-23T05:31:28.699Z,79.48
2019-03-23T05:33:56.620Z,78.83
2019-03-23T05:36:24.535Z,79.61
2019-03-23T05:38:52.425Z,80.95
2019-03-23T05:41:20.322Z,81.96
2019-03-23T05:43:48.202Z,81.82
2019-03-23T05:46:16.681Z,81.39
2019-03-23T05:48:44.544Z,82.03
2019-03-23T05:51:12.439Z,80.47
2019-03-23T05:53:40.261Z,82.01
2019-03-23T05:56:08.122Z,80.88
2019-03-23T05:58:35.959Z,80.68
2019-03-23T06:01:03.811Z,80.50
2019-03-23T06:03:31.741Z,78.88
2019-03-23T06:05:59.622Z,78.65
2019-03-23T06:08:27.461Z,80.00
2019-03-23T06:10:55.360Z,81.59
2019-03-23T06:13:23.279Z,80.28
2019-03-23T06:15:51.099Z,82.50
2019-03-23T06:18:18.974Z,80.92
2019-03-23T06:20:46.951Z,81.44
2019-03-23T06:23:15.880Z,80.80
2019-03-23T06:25:43.785Z,79.25
2019-03-23T06:28:11.691Z,79.48
2019-03-23T06:30:39.583Z,80.02
2019-03-23T06:33:07.459Z,80.09
2019-03-23T06:35:35.380Z,80.22
2019-03-23T06:38:04.055Z,80.17
2019-03-23T06:40:31.873Z,79.68
2019-03-23T06:43:00.155Z,79.15
2019-03-23T06:45:28.657Z,78.64
2019-03-23T06:47:56.787Z,78.99
2019-03-23T06:50:24.831Z,79.05
2019-03-23T06:52:53.069Z,80.10
2019-03-23T06:55:20.931Z,79.76
2019-03-23T06:57:48.774Z,79.64
2019-03-23T07:00:16.760Z,78.75
2019-03-23T07:02:44.662Z,80.54
2019-03-23T07:05:13.055Z,80.89
2019-03-23T07:07:41.137Z,81.44
2019-03-23T07:10:10.856Z,82.14
2019-03-23T07:12:38.838Z,81.46
2019-03-23T07:15:07.873Z,80.69
2019-03-23T07:17:35.806Z,80.82
2019-03-23T07:20:04.986Z,79.76
2019-03-23T07:22:32.889Z,80.07
2019-03-23T07:25:00.966Z,80.77
2019-03-23T07:27:29.240Z,80.55
2019-03-23T07:29:57.119Z,80.65
2019-03-23T07:32:25.028Z,80.60
2019-03-23T07:34:52.970Z,80.55
2019-03-23T07:37:20.922Z,79.79
2019-03-23T07:39:48.810Z,79.91
2019-03-23T07:42:16.994Z,78.74
2019-03-23T07:44:46.717Z,78.19
2019-03-23T07:47:14.716Z,78.13
2019-03-23T07:49:43.642Z,78.72
2019-03-23T07:52:11.559Z,77.34
2019-03-23T07:54:39.461Z,75.74
2019-03-23T07:57:07.399Z,76.41
2019-03-23T07:59:35.354Z,75.31
2019-03-23T08:02:03.280Z,74.77
2019-03-23T08:04:31.196Z,73.67
2019-03-23T08:06:59.122Z,73.20
2019-03-23T08:09:37.082Z,72.23
2019-03-23T08:11:56.780Z,71.80
2019-03-23T08:14:24.690Z,72.07
2019-03-23T08:16:52.546Z,71.49
2019-03-23T08:19:20.456Z,71.03
2019-03-23T08:21:48.342Z,72.95
2019-03-23T08:24:16.325Z,73.18
2019-03-23T08:26:44.204Z,73.91
2019-03-23T08:29:12.028Z,72.51
2019-03-23T08:31:39.945Z,71.40
2019-03-23T08:34:07.836Z,72.45
2019-03-23T08:36:35.841Z,71.93
2019-03-23T08:39:05.125Z,71.58
2019-03-23T08:41:33.022Z,69.10
2019-03-23T08:44:00.887Z,69.82
2019-03-23T08:46:28.837Z,66.42
2019-03-23T08:48:56.743Z,63.77
2019-03-23T08:51:24.590Z,63.69
2019-03-23T08:53:52.541Z,66.30
2019-03-23T08:56:20.436Z,64.66
2019-03-23T08:58:46.646Z,61.27
2019-03-23T09:01:14.541Z,62.90
2019-03-23T09:03:52.070Z,60.88
2019-03-23T09:06:12.196Z,60.27
2019-03-23T09:08:40.153Z,58.80
2019-03-23T09:11:08.041Z,59.38
2019-03-23T09:13:40.665Z,60.05
2019-03-23T09:16:05.823Z,59.23
2019-03-23T09:18:33.781Z,56.47
2019-03-23T09:21:01.847Z,56.62
2019-03-23T09:23:29.833Z,56.37
2019-03-23T09:25:58.282Z,57.21
2019-03-23T09:28:26.227Z,55.29
2019-03-23T09:30:54.328Z,56.54
2019-03-23T09:33:22.271Z,55.68
2019-03-23T09:35:50.357Z,52.38
2019-03-23T09:38:18.278Z,53.34
2019-03-23T09:40:46.231Z,59.23
2019-03-23T09:43:14.206Z,53.07
2019-03-23T09:45:42.217Z,54.91
2019-03-23T09:48:10.239Z,53.19
2019-03-23T09:50:38.277Z,52.57
2019-03-23T09:53:06.267Z,50.62
2019-03-23T09:55:34.234Z,49.76
2019-03-23T09:58:02.214Z,50.11
2019-03-23T10:00:32.341Z,50.17
2019-03-23T10:03:00.311Z,49.32
2019-03-23T10:05:28.269Z,49.00
2019-03-23T10:07:56.196Z,49.59
2019-03-23T10:10:24.176Z,49.45
2019-03-23T10:12:52.122Z,49.10
2019-03-23T10:15:20.381Z,48.66
2019-03-23T10:17:48.368Z,48.29
2019-03-23T10:20:16.371Z,48.49
2019-03-23T10:22:44.513Z,47.41
2019-03-23T10:25:12.475Z,48.05
2019-03-23T10:27:40.626Z,46.77
2019-03-23T10:30:08.736Z,47.89
2019-03-23T10:32:36.621Z,46.71
2019-03-23T10:35:06.442Z,47.46
2019-03-23T10:37:34.331Z,46.00
2019-03-23T10:40:02.203Z,46.94
2019-03-23T10:42:30.375Z,46.54
2019-03-23T10:44:58.263Z,46.69
2019-03-23T10:47:27.295Z,46.50
2019-03-23T10:49:55.152Z,46.14
2019-03-23T10:52:23.010Z,45.51
2019-03-23T10:54:56.417Z,44.85
2019-03-23T10:57:24.311Z,45.68
2019-03-23T10:59:52.272Z,44.53
2019-03-23T11:02:20.198Z,43.80
2019-03-23T11:04:48.101Z,43.45
2019-03-23T11:07:16.091Z,45.07
2019-03-23T11:09:44.027Z,43.49
2019-03-23T11:12:11.886Z,43.80
2019-03-23T11:14:39.842Z,42.35
2019-03-23T11:17:07.719Z,44.22
2019-03-23T11:19:35.569Z,42.17
2019-03-23T11:22:03.499Z,41.87
2019-03-23T11:24:31.359Z,41.91
2019-03-23T11:26:59.259Z,42.33
2019-03-23T11:29:27.150Z,42.47
2019-03-23T11:31:54.999Z,42.71
2019-03-23T11:34:23.061Z,41.57
2019-03-23T11:36:50.979Z,42.05
2019-03-23T11:39:18.847Z,40.08
2019-03-23T11:41:46.779Z,41.39
2019-03-23T11:44:14.702Z,41.37
2019-03-23T11:46:42.635Z,40.43
2019-03-23T11:49:10.618Z,37.89
2019-03-23T11:51:38.467Z,40.97
2019-03-23T11:54:06.399Z,40.19
2019-03-23T11:56:34.337Z,39.14
2019-03-23T11:59:02.235Z,40.18
2019-03-23T12:01:31.079Z,40.21
2019-03-23T12:03:58.982Z,39.21
2019-03-23T12:06:26.838Z,38.93
2019-03-23T12:08:55.506Z,41.73
2019-03-23T12:11:23.402Z,42.40
2019-03-23T12:13:51.331Z,41.05
2019-03-23T12:16:19.261Z,42.79
2019-03-23T12:18:47.143Z,43.10
2019-03-23T12:21:15.061Z,43.40
2019-03-23T12:23:42.925Z,42.33
2019-03-23T12:26:10.806Z,43.52
2019-03-23T12:28:38.653Z,44.13
2019-03-23T12:31:06.557Z,40.73
2019-03-23T12:33:34.522Z,40.57
2019-03-23T12:36:02.407Z,42.21
2019-03-23T12:38:30.302Z,41.51
2019-03-23T12:40:58.260Z,42.12
2019-03-23T12:43:26.257Z,40.82
2019-03-23T12:45:54.161Z,41.67
2019-03-23T12:48:22.100Z,42.15
2019-03-23T12:50:49.944Z,38.47
2019-03-23T12:53:17.827Z,39.56
2019-03-23T12:55:45.700Z,39.96
2019-03-23T12:58:13.560Z,39.67
2019-03-23T13:00:41.441Z,40.84
2019-03-23T13:03:09.367Z,38.88
2019-03-23T13:05:37.286Z,39.95
2019-03-23T13:08:05.319Z,40.86
2019-03-23T13:10:33.337Z,38.70
2019-03-23T13:13:01.265Z,38.53
2019-03-23T13:15:29.187Z,37.66
2019-03-23T13:17:57.106Z,38.90
2019-03-23T13:20:25.033Z,38.24
2019-03-23T13:22:53.063Z,37.89
2019-03-23T13:25:20.996Z,37.73
2019-03-23T13:27:48.882Z,36.81
2019-03-23T13:30:16.887Z,36.56
2019-03-23T13:32:44.742Z,35.26
2019-03-23T13:35:12.603Z,36.45
2019-03-23T13:37:40.479Z,35.96
2019-03-23T13:40:08.922Z,36.80
2019-03-23T13:42:36.794Z,35.97
2019-03-23T13:45:06.126Z,35.89
2019-03-23T13:47:34.064Z,34.39
2019-03-23T13:50:01.894Z,34.85
2019-03-23T13:52:29.802Z,35.14
2019-03-23T13:54:57.801Z,37.36
2019-03-23T13:57:25.690Z,35.62
2019-03-23T13:59:53.566Z,36.13
2019-03-23T14:02:21.526Z,36.47
2019-03-23T14:04:50.357Z,36.01
2019-03-23T14:07:18.401Z,37.08
2019-03-23T14:09:46.947Z,34.96
2019-03-23T14:12:14.853Z,35.58
2019-03-23T14:14:42.733Z,35.19
2019-03-23T14:17:10.679Z,36.61
2019-03-23T14:19:38.560Z,37.08
2019-03-23T14:22:06.441Z,35.59
2019-03-23T14:24:34.361Z,34.95
2019-03-23T14:27:02.220Z,35.08
2019-03-23T14:29:30.136Z,36.60
2019-03-23T14:31:58.096Z,35.10
2019-03-23T14:34:25.982Z,35.55
2019-03-23T14:36:53.978Z,36.86
2019-03-23T14:39:21.902Z,35.38
2019-03-23T14:41:49.758Z,35.07
2019-03-23T14:44:17.608Z,35.36
2019-03-23T14:46:45.525Z,35.89
2019-03-23T14:49:13.419Z,37.00
2019-03-23T14:51:41.231Z,36.10
2019-03-23T14:54:09.179Z,36.13
2019-03-23T14:56:37.104Z,36.24
2019-03-23T14:59:05.004Z,34.61
2019-03-23T15:01:32.917Z,34.94
2019-03-23T15:04:00.781Z,35.63
2019-03-23T15:06:28.641Z,35.98
2019-03-23T15:08:56.564Z,35.23
2019-03-23T15:11:24.460Z,36.35
2019-03-23T15:13:52.339Z,35.96
2019-03-23T15:16:20.605Z,36.12
2019-03-23T15:18:48.522Z,35.80
2019-03-23T15:21:16.419Z,34.93
2019-03-23T15:23:44.466Z,34.25
2019-03-23T15:26:12.562Z,35.68
2019-03-23T15:28:43.046Z,34.80
2019-03-23T15:31:10.935Z,35.63
2019-03-23T15:33:38.898Z,34.96
2019-03-23T15:36:06.782Z,35.18
2019-03-23T15:38:34.702Z,35.75
2019-03-23T15:41:04.335Z,36.80
2019-03-23T15:43:32.248Z,37.10
2019-03-23T15:46:00.321Z,35.72
2019-03-23T15:48:28.783Z,35.77
2019-03-23T15:50:56.874Z,36.85
2019-03-23T15:53:24.891Z,35.60
2019-03-23T15:55:53.288Z,37.82
2019-03-23T15:58:21.129Z,36.05
2019-03-23T16:00:49.993Z,37.35
2019-03-23T16:03:17.888Z,35.86
2019-03-23T16:05:45.845Z,36.78
2019-03-23T16:08:13.973Z,36.65
2019-03-23T16:10:41.904Z,37.23
2019-03-23T16:13:09.917Z,38.12
2019-03-23T16:15:37.899Z,38.15
2019-03-23T16:18:05.862Z,37.83
2019-03-23T16:20:34.069Z,41.22
2019-03-23T16:23:02.111Z,39.40
2019-03-23T16:25:30.049Z,38.53
2019-03-23T16:27:58.072Z,40.14
2019-03-23T16:30:30.909Z,40.25
2019-03-23T16:32:58.911Z,40.33
2019-03-23T16:35:26.865Z,42.99
2019-03-23T16:37:54.984Z,43.94
2019-03-23T16:40:23.133Z,45.31
2019-03-23T16:42:51.264Z,46.56
2019-03-23T16:45:19.594Z,47.38
2019-03-23T16:47:49.963Z,47.99
2019-03-23T16:50:18.093Z,47.35
2019-03-23T16:52:46.262Z,48.93
2019-03-23T16:55:14.491Z,49.34
2019-03-23T16:57:42.789Z,46.53
2019-03-23T17:00:12.857Z,45.63
2019-03-23T17:02:41.108Z,46.49
2019-03-23T17:05:09.482Z,46.59
2019-03-23T17:07:37.720Z,47.16
2019-03-23T17:10:06.965Z,47.54
2019-03-23T17:12:35.349Z,47.79
2019-03-23T17:15:04.081Z,46.84
2019-03-23T17:17:32.400Z,49.43
2019-03-23T17:20:00.692Z,46.92
2019-03-23T17:22:28.960Z,46.45
2019-03-23T17:24:57.234Z,46.76
2019-03-23T17:27:25.359Z,46.63
2019-03-23T17:29:53.602Z,47.97
2019-03-23T17:32:21.972Z,49.95
2019-03-23T17:34:50.319Z,50.84
2019-03-23T17:37:18.636Z,48.25
2019-03-23T17:39:46.966Z,47.96
2019-03-23T17:42:15.357Z,49.94
2019-03-23T17:44:43.559Z,48.63
2019-03-23T17:47:11.987Z,51.24
2019-03-23T17:49:40.307Z,50.96
2019-03-23T17:52:08.642Z,51.11
2019-03-23T17:54:36.878Z,51.15
2019-03-23T17:57:05.320Z,48.17
2019-03-23T17:59:33.631Z,49.91
2019-03-23T18:02:01.974Z,49.31
2019-03-23T18:04:30.350Z,49.61
2019-03-23T18:06:58.683Z,50.42
2019-03-23T18:09:26.971Z,51.18
2019-03-23T18:11:55.271Z,51.24
2019-03-23T18:14:24.177Z,51.47
2019-03-23T18:16:52.313Z,52.20
2019-03-23T18:19:20.605Z,54.01
2019-03-23T18:21:48.897Z,53.53
2019-03-23T18:24:17.886Z,51.18
2019-03-23T18:26:46.187Z,51.60
2019-03-23T18:29:14.652Z,53.70
2019-03-23T18:31:42.894Z,53.53
2019-03-23T18:34:11.131Z,54.92
2019-03-23T18:36:39.815Z,54.63
2019-03-23T18:39:08.224Z,52.93
2019-03-23T18:41:36.554Z,54.92
2019-03-23T18:44:15.600Z,54.99
2019-03-23T18:46:35.390Z,55.00
2019-03-23T18:49:03.800Z,55.24
2019-03-23T18:51:32.183Z,55.79
2019-03-23T18:54:00.531Z,54.31
2019-03-23T18:56:29.141Z,54.24
2019-03-23T18:58:57.676Z,55.65
2019-03-23T19:01:26.490Z,56.67
2019-03-23T19:03:55.388Z,57.98
2019-03-23T19:06:23.652Z,56.22
2019-03-23T19:08:52.095Z,55.80
2019-03-23T19:11:21.909Z,58.31
2019-03-23T19:13:50.283Z,59.62
2019-03-23T19:16:19.056Z,59.17
2019-03-23T19:18:49.217Z,59.19
2019-03-23T19:21:17.496Z,58.06
2019-03-23T19:23:45.914Z,57.72
2019-03-23T19:26:14.323Z,57.94
2019-03-23T19:28:42.804Z,57.97
2019-03-23T19:31:10.989Z,59.78
2019-03-23T19:33:39.362Z,59.42
2019-03-23T19:36:07.901Z,59.10
2019-03-23T19:38:36.226Z,58.66
2019-03-23T19:41:05.689Z,59.10
2019-03-23T19:43:34.166Z,59.56
2019-03-23T19:46:03.071Z,59.57
2019-03-23T19:48:31.587Z,59.88
2019-03-23T19:50:59.867Z,59.95
2019-03-23T19:53:28.035Z,60.29
2019-03-23T19:55:56.585Z,60.57
2019-03-23T19:58:24.971Z,60.28
2019-03-23T20:00:53.409Z,60.75
2019-03-23T20:03:21.643Z,60.31
2019-03-23T20:05:50.043Z,61.11
2019-03-23T20:08:18.667Z,61.83
2019-03-23T20:10:46.981Z,61.37
2019-03-23T20:13:15.319Z,61.55
2019-03-23T20:15:44.026Z,61.36
2019-03-23T20:18:12.427Z,59.72
2019-03-23T20:20:40.809Z,59.22
2019-03-23T20:23:09.285Z,58.12
2019-03-23T20:25:39.697Z,61.29
2019-03-23T20:28:07.963Z,62.17
2019-03-23T20:30:37.079Z,63.39
2019-03-23T20:33:05.711Z,63.30
2019-03-23T20:35:34.011Z,63.42
2019-03-23T20:38:08.286Z,63.44
2019-03-23T20:40:38.351Z,63.42
2019-03-23T20:43:06.991Z,63.26
2019-03-23T20:45:36.561Z,61.91
2019-03-23T20:48:04.886Z,63.80
2019-03-23T20:50:33.309Z,65.06
2019-03-23T20:53:02.146Z,64.73
2019-03-23T20:55:31.528Z,63.71
2019-03-23T20:58:00.279Z,64.61
2019-03-23T21:00:29.016Z,64.47
2019-03-23T21:02:57.885Z,64.82
2019-03-23T21:05:33.917Z,64.92
2019-03-23T21:07:56.509Z,65.10
2019-03-23T21:10:24.924Z,65.07
2019-03-23T21:12:55.869Z,62.90
2019-03-23T21:15:24.153Z,61.85
2019-03-23T21:17:52.682Z,63.97
2019-03-23T21:20:21.228Z,63.85
2019-03-23T21:22:49.542Z,63.45
2019-03-23T21:25:17.897Z,65.21
2019-03-23T21:27:46.346Z,65.47
2019-03-23T21:30:15.419Z,65.00
2019-03-23T21:32:43.846Z,65.53
2019-03-23T21:35:12.263Z,65.50
2019-03-23T21:37:40.699Z,63.19
2019-03-23T21:40:09.210Z,63.48
2019-03-23T21:42:37.545Z,64.12
2019-03-23T21:45:06.322Z,64.26
2019-03-23T21:47:34.564Z,65.12
2019-03-23T21:50:02.703Z,63.73
2019-03-23T21:52:31.042Z,65.29
2019-03-23T21:54:59.168Z,64.22
2019-03-23T21:57:27.271Z,64.52
2019-03-23T21:59:56.262Z,64.95
2019-03-23T22:02:24.379Z,63.63
2019-03-23T22:04:52.357Z,62.73
2019-03-23T22:07:20.392Z,63.90
2019-03-23T22:09:48.403Z,65.34
2019-03-23T22:12:16.343Z,64.02
2019-03-23T22:14:44.324Z,64.34
2019-03-23T22:17:12.415Z,63.37
2019-03-23T22:19:40.366Z,64.79
2019-03-23T22:22:08.343Z,64.79
2019-03-23T22:24:36.362Z,65.72
2019-03-23T22:27:04.264Z,65.59
2019-03-23T22:29:32.146Z,64.83
2019-03-23T22:32:00.129Z,63.98
2019-03-23T22:34:27.993Z,65.81
2019-03-23T22:36:55.881Z,65.37
2019-03-23T22:39:23.825Z,64.03
2019-03-23T22:41:51.726Z,64.68
2019-03-23T22:44:19.601Z,64.33
2019-03-23T22:46:47.534Z,63.96
2019-03-23T22:49:15.486Z,66.17
2019-03-23T22:51:43.400Z,65.71
2019-03-23T22:54:11.350Z,65.37
2019-03-23T22:56:39.301Z,67.12
2019-03-23T22:59:10.693Z,65.97
2019-03-23T23:01:39.057Z,65.87
2019-03-23T23:04:07.231Z,65.86
2019-03-23T23:06:35.458Z,66.96
2019-03-23T23:09:05.528Z,65.87
2019-03-23T23:11:33.421Z,65.54
2019-03-23T23:14:01.687Z,66.79
2019-03-23T23:16:29.599Z,67.15
2019-03-23T23:18:57.432Z,67.24
2019-03-23T23:21:25.386Z,67.45
2019-03-23T23:23:53.409Z,67.50
2019-03-23T23:26:21.259Z,68.29
2019-03-23T23:28:49.127Z,67.28
2019-03-23T23:31:17.016Z,67.62
2019-03-23T23:33:44.841Z,67.67
2019-03-23T23:36:12.701Z,68.68
2019-03-23T23:38:40.610Z,68.78
2019-03-23T23:41:08.490Z,69.04
2019-03-23T23:43:36.341Z,69.51
2019-03-23T23:46:04.279Z,69.67
2019-03-23T23:48:32.260Z,68.86
2019-03-23T23:51:00.139Z,67.58
2019-03-23T23:53:28.041Z,67.53
2019-03-23T23:55:55.959Z,68.02
2019-03-23T23:58:23.864Z,68.51
